createdAt,value
2022-12-20T00:02:30.205Z,-3.41
2022-12-20T00:05:02.397Z,-2.75
2022-12-20T00:07:34.602Z,-2.75
2022-12-20T00:10:07.324Z,-2.87
2022-12-20T00:12:39.228Z,-2.73
2022-12-20T00:15:11.708Z,-2.68
2022-12-20T00:17:43.761Z,-2.84
2022-12-20T00:20:15.857Z,-2.70
2022-12-20T00:22:47.771Z,-2.84
2022-12-20T00:25:21.100Z,-2.78
2022-12-20T00:27:53.063Z,-2.93
2022-12-20T00:30:25.027Z,-2.71
2022-12-20T00:32:56.999Z,-3.08
2022-12-20T00:35:28.963Z,-2.60
2022-12-20T00:38:00.972Z,-2.98
2022-12-20T00:40:32.955Z,-2.65
2022-12-20T00:43:04.940Z,-2.50
2022-12-20T00:45:36.955Z,-2.45
2022-12-20T00:48:08.946Z,-2.86
2022-12-20T00:50:40.914Z,-2.53
2022-12-20T00:53:12.976Z,-2.43
2022-12-20T00:55:46.651Z,-2.50
2022-12-20T00:58:18.652Z,-2.55
2022-12-20T01:00:56.137Z,-2.37
2022-12-20T01:03:29.406Z,-2.44
2022-12-20T01:06:03.262Z,-2.27
2022-12-20T01:08:35.250Z,-2.26
2022-12-20T01:11:19.163Z,-2.37
2022-12-20T01:13:54.308Z,-2.48
2022-12-20T01:16:29.949Z,-2.27
2022-12-20T01:19:02.768Z,-2.10
2022-12-20T01:21:36.370Z,-2.07
2022-12-20T01:24:12.424Z,-2.20
2022-12-20T01:26:45.423Z,-2.09
2022-12-20T01:29:18.616Z,-2.04
2022-12-20T01:31:54.445Z,-2.01
2022-12-20T01:34:26.447Z,-1.95
2022-12-20T01:36:58.543Z,-2.36
2022-12-20T01:39:30.438Z,-2.54
2022-12-20T01:42:02.442Z,-1.98
2022-12-20T01:44:43.538Z,-1.88
2022-12-20T01:47:15.709Z,-1.99
2022-12-20T01:49:52.868Z,-2.32
2022-12-20T01:52:39.298Z,-1.82
2022-12-20T01:55:17.786Z,-1.75
2022-12-20T01:58:03.866Z,-2.00
2022-12-20T02:00:37.616Z,-1.77
2022-12-20T02:03:13.524Z,-2.45
2022-12-20T02:05:47.377Z,-1.74
2022-12-20T02:08:20.860Z,-1.65
2022-12-20T02:11:11.105Z,-1.61
2022-12-20T02:14:05.332Z,-1.59
2022-12-20T02:16:48.754Z,-1.65
2022-12-20T02:19:47.082Z,-1.48
2022-12-20T02:22:37.831Z,-1.43
2022-12-20T02:25:28.372Z,-1.37
2022-12-20T02:28:21.729Z,-1.36
2022-12-20T02:30:58.466Z,-1.49
2022-12-20T02:33:30.419Z,-1.41
2022-12-20T02:36:04.613Z,-1.34
2022-12-20T02:38:38.634Z,-1.40
2022-12-20T02:41:14.284Z,-1.24
2022-12-20T02:44:10.753Z,-1.24
2022-12-20T02:46:43.467Z,-1.27
2022-12-20T02:49:20.772Z,-1.20
2022-12-20T02:51:54.975Z,-1.17
2022-12-20T02:54:28.569Z,-1.15
2022-12-20T02:57:20.553Z,-1.14
2022-12-20T03:00:06.904Z,-1.09
2022-12-20T03:02:58.483Z,-1.08
2022-12-20T03:05:31.536Z,-1.10
2022-12-20T03:08:03.590Z,-1.10
2022-12-20T03:10:35.585Z,-1.18
2022-12-20T03:13:07.841Z,-1.34
2022-12-20T03:15:39.824Z,-1.06
2022-12-20T03:18:12.223Z,-1.04
2022-12-20T03:20:47.249Z,-1.02
2022-12-20T03:23:22.735Z,-1.80
2022-12-20T03:25:54.964Z,-1.40
2022-12-20T03:28:27.400Z,-1.18
2022-12-20T03:30:59.734Z,-0.87
2022-12-20T03:33:31.873Z,-0.95
2022-12-20T03:36:04.039Z,-1.04
2022-12-20T03:38:36.010Z,-0.96
2022-12-20T03:41:08.248Z,-0.98
2022-12-20T03:43:40.221Z,-1.00
2022-12-20T03:46:12.313Z,-1.42
2022-12-20T03:48:44.828Z,-0.83
2022-12-20T03:51:16.842Z,-0.95
2022-12-20T03:53:49.044Z,-0.81
2022-12-20T03:56:21.070Z,-1.25
2022-12-20T03:58:53.032Z,-1.23
2022-12-20T04:01:27.850Z,-0.80
2022-12-20T04:04:00.037Z,-0.94
2022-12-20T04:06:32.362Z,-1.19
2022-12-20T04:09:04.567Z,-1.26
2022-12-20T04:11:36.552Z,-0.72
2022-12-20T04:14:08.749Z,-0.90
2022-12-20T04:16:40.961Z,-1.16
2022-12-20T04:19:13.168Z,-0.79
2022-12-20T04:21:45.434Z,-1.43
2022-12-20T04:24:17.682Z,-0.74
2022-12-20T04:26:49.945Z,-1.25
2022-12-20T04:29:22.035Z,-0.76
2022-12-20T04:31:54.200Z,-1.16
2022-12-20T04:34:26.311Z,-0.67
2022-12-20T04:36:58.317Z,-1.06
2022-12-20T04:39:30.328Z,-0.62
2022-12-20T04:42:02.321Z,-0.40
2022-12-20T04:44:34.288Z,-1.12
2022-12-20T04:47:06.365Z,-0.89
2022-12-20T04:49:38.485Z,-0.90
2022-12-20T04:52:28.922Z,-0.47
2022-12-20T04:55:00.903Z,-0.47
2022-12-20T04:57:32.891Z,-0.36
2022-12-20T05:00:05.222Z,-0.44
2022-12-20T05:02:37.346Z,-0.60
2022-12-20T05:05:09.797Z,-1.08
2022-12-20T05:07:41.771Z,-0.54
2022-12-20T05:10:13.806Z,-0.40
2022-12-20T05:12:46.000Z,-0.47
2022-12-20T05:15:18.201Z,-0.47
2022-12-20T05:17:50.234Z,-0.32
2022-12-20T05:20:22.211Z,-0.42
2022-12-20T05:23:12.597Z,-0.36
2022-12-20T05:26:09.680Z,-0.42
2022-12-20T05:28:41.695Z,-0.52
2022-12-20T05:31:13.767Z,-0.37
2022-12-20T05:33:46.061Z,-0.44
2022-12-20T05:36:18.582Z,-0.32
2022-12-20T05:38:50.605Z,-0.43
2022-12-20T05:41:22.722Z,-0.51
2022-12-20T05:43:54.706Z,-0.80
2022-12-20T05:46:26.866Z,-0.71
2022-12-20T05:48:58.890Z,-0.76
2022-12-20T05:51:30.999Z,-0.36
2022-12-20T05:54:03.146Z,-0.44
2022-12-20T05:56:35.169Z,-0.37
2022-12-20T05:59:07.268Z,-0.52
2022-12-20T06:01:39.452Z,-0.48
2022-12-20T06:04:11.821Z,-0.55
2022-12-20T06:06:44.137Z,-0.29
2022-12-20T06:09:16.252Z,-0.55
2022-12-20T06:11:48.321Z,-0.25
2022-12-20T06:14:20.317Z,-0.22
2022-12-20T06:16:53.628Z,-0.30
2022-12-20T06:19:25.703Z,-0.20
2022-12-20T06:21:58.690Z,-0.72
2022-12-20T06:24:30.708Z,-0.35
2022-12-20T06:27:03.637Z,-0.17
2022-12-20T06:29:37.703Z,-0.44
2022-12-20T06:32:09.953Z,-0.38
2022-12-20T06:34:43.264Z,-0.35
2022-12-20T06:37:15.431Z,-0.38
2022-12-20T06:39:47.444Z,-0.54
2022-12-20T06:42:19.551Z,-0.16
2022-12-20T06:44:51.666Z,-0.13
2022-12-20T06:47:23.785Z,-0.60
2022-12-20T06:49:55.778Z,-0.25
2022-12-20T06:52:27.899Z,-0.55
2022-12-20T06:55:00.023Z,-0.72
2022-12-20T06:57:32.053Z,-0.56
2022-12-20T07:00:05.475Z,-0.01
2022-12-20T07:02:38.024Z,-0.19
2022-12-20T07:05:10.282Z,-0.09
2022-12-20T07:07:45.107Z,0.12
2022-12-20T07:10:17.861Z,0.02
2022-12-20T07:12:49.856Z,0.09
2022-12-20T07:15:22.535Z,-0.21
2022-12-20T07:17:54.488Z,-0.34
2022-12-20T07:20:26.656Z,-0.38
2022-12-20T07:22:58.936Z,0.10
2022-12-20T07:25:30.945Z,0.25
2022-12-20T07:28:03.658Z,0.13
2022-12-20T07:30:35.658Z,0.23
2022-12-20T07:33:08.032Z,0.29
2022-12-20T07:35:40.687Z,0.21
2022-12-20T07:38:15.898Z,0.16
2022-12-20T07:40:53.872Z,0.27
2022-12-20T07:43:25.904Z,0.25
2022-12-20T07:45:58.095Z,0.20
2022-12-20T07:48:30.294Z,0.00
2022-12-20T07:51:07.609Z,0.37
2022-12-20T07:53:45.204Z,0.36
2022-12-20T07:56:21.273Z,0.35
2022-12-20T07:58:58.642Z,0.22
2022-12-20T08:01:31.851Z,0.44
2022-12-20T08:04:08.207Z,0.21
2022-12-20T08:06:42.437Z,0.35
2022-12-20T08:09:15.949Z,0.54
2022-12-20T08:11:49.642Z,0.45
2022-12-20T08:14:22.180Z,0.47
2022-12-20T08:16:54.268Z,0.64
2022-12-20T08:19:31.989Z,0.41
2022-12-20T08:22:05.085Z,0.47
2022-12-20T08:24:37.117Z,0.45
2022-12-20T08:27:09.541Z,0.51
2022-12-20T08:29:41.673Z,0.49
2022-12-20T08:32:14.615Z,0.51
2022-12-20T08:34:46.589Z,0.31
2022-12-20T08:37:19.273Z,0.65
2022-12-20T08:39:51.314Z,0.51
2022-12-20T08:42:23.462Z,0.16
2022-12-20T08:44:55.445Z,0.63
2022-12-20T08:47:29.900Z,0.43
2022-12-20T08:50:02.212Z,0.46
2022-12-20T08:52:34.301Z,0.92
2022-12-20T08:55:07.198Z,0.91
2022-12-20T08:57:39.194Z,0.82
2022-12-20T09:00:11.866Z,1.09
2022-12-20T09:02:43.996Z,0.90
2022-12-20T09:05:16.185Z,0.84
2022-12-20T09:07:48.129Z,0.98
2022-12-20T09:10:20.180Z,0.64
2022-12-20T09:12:52.190Z,0.68
2022-12-20T09:15:24.248Z,0.81
2022-12-20T09:17:56.285Z,1.11
2022-12-20T09:20:29.245Z,1.12
2022-12-20T09:23:01.214Z,1.04
2022-12-20T09:25:33.596Z,0.95
2022-12-20T09:28:06.341Z,1.26
2022-12-20T09:30:38.328Z,1.13
2022-12-20T09:33:10.851Z,1.10
2022-12-20T09:35:49.053Z,1.37
2022-12-20T09:38:21.163Z,1.09
2022-12-20T09:40:56.637Z,1.24
2022-12-20T09:43:29.087Z,1.31
2022-12-20T09:46:03.616Z,1.37
2022-12-20T09:48:39.394Z,1.68
2022-12-20T09:51:11.356Z,1.90
2022-12-20T09:54:08.612Z,2.03
2022-12-20T09:56:46.454Z,1.92
2022-12-20T09:59:21.765Z,2.16
2022-12-20T10:01:53.733Z,2.39
2022-12-20T10:04:31.866Z,2.62
2022-12-20T10:07:33.709Z,2.26
2022-12-20T10:10:05.700Z,2.34
2022-12-20T10:13:18.132Z,2.21
2022-12-20T10:15:58.535Z,2.05
2022-12-20T10:19:10.417Z,2.10
2022-12-20T10:22:21.098Z,2.13
2022-12-20T10:25:12.654Z,2.23
2022-12-20T10:27:46.593Z,2.15
2022-12-20T10:30:24.684Z,2.26
2022-12-20T10:32:58.446Z,2.30
2022-12-20T10:35:41.363Z,2.26
2022-12-20T10:38:17.871Z,2.58
2022-12-20T10:41:21.444Z,2.64
2022-12-20T10:44:24.668Z,2.84
2022-12-20T10:46:59.825Z,2.77
2022-12-20T10:49:33.282Z,2.59
2022-12-20T10:52:14.452Z,2.34
2022-12-20T10:54:47.832Z,2.50
2022-12-20T10:57:29.508Z,2.38
2022-12-20T11:00:06.654Z,2.23
2022-12-20T11:02:42.307Z,2.39
2022-12-20T11:05:15.023Z,2.38
2022-12-20T11:10:49.587Z,2.39
2022-12-20T11:13:26.962Z,1.98
2022-12-20T11:16:02.040Z,2.29
2022-12-20T11:18:57.730Z,2.09
2022-12-20T11:22:10.809Z,1.95
2022-12-20T11:24:52.022Z,2.09
2022-12-20T11:27:26.770Z,2.15
2022-12-20T11:30:17.468Z,2.09
2022-12-20T11:32:52.891Z,2.16
2022-12-20T11:35:41.062Z,2.18
2022-12-20T11:38:28.183Z,2.26
2022-12-20T11:41:06.058Z,2.36
2022-12-20T11:47:17.874Z,2.53
2022-12-20T11:50:28.577Z,2.46
2022-12-20T11:53:20.309Z,2.34
2022-12-20T11:55:55.940Z,2.30
2022-12-20T11:58:36.530Z,2.37
2022-12-20T12:01:17.090Z,2.29
2022-12-20T12:04:14.630Z,2.25
2022-12-20T12:07:01.301Z,2.00
2022-12-20T12:09:55.809Z,2.08
2022-12-20T12:12:48.911Z,2.12
2022-12-20T12:15:26.989Z,2.20
2022-12-20T12:18:12.829Z,2.17
2022-12-20T12:21:10.056Z,2.15
2022-12-20T12:23:45.347Z,2.36
2022-12-20T12:26:25.423Z,2.19
2022-12-20T12:29:01.375Z,2.27
2022-12-20T12:31:43.835Z,2.19
2022-12-20T12:34:34.243Z,2.63
2022-12-20T12:37:30.981Z,2.73
2022-12-20T12:40:43.911Z,2.59
2022-12-20T12:43:40.934Z,2.45
2022-12-20T12:46:36.000Z,2.27
2022-12-20T12:49:18.177Z,2.07
2022-12-20T12:51:55.002Z,2.20
2022-12-20T12:54:36.247Z,2.15
2022-12-20T12:57:16.714Z,2.10
2022-12-20T12:59:52.481Z,2.00
2022-12-20T13:02:28.579Z,2.15
2022-12-20T13:05:11.331Z,2.09
2022-12-20T13:07:44.053Z,1.85
2022-12-20T13:10:15.848Z,2.01
2022-12-20T13:12:50.672Z,1.93
2022-12-20T13:15:22.750Z,1.99
2022-12-20T13:17:58.505Z,1.33
2022-12-20T13:20:33.777Z,1.86
2022-12-20T13:23:08.515Z,1.92
2022-12-20T13:25:54.542Z,1.91
2022-12-20T13:28:26.501Z,1.81
2022-12-20T13:30:58.498Z,1.88
2022-12-20T13:33:47.833Z,1.76
2022-12-20T13:36:38.309Z,1.79
2022-12-20T13:39:22.612Z,1.70
2022-12-20T13:42:28.105Z,1.61
2022-12-20T13:45:03.184Z,1.60
2022-12-20T13:47:42.501Z,1.57
2022-12-20T13:50:26.243Z,1.61
2022-12-20T13:52:58.936Z,1.54
2022-12-20T13:55:38.953Z,1.46
2022-12-20T13:58:14.838Z,1.46
2022-12-20T14:00:48.022Z,1.47
2022-12-20T14:03:28.113Z,1.45
2022-12-20T14:06:03.544Z,1.28
2022-12-20T14:08:41.294Z,1.30
2022-12-20T14:11:14.400Z,1.43
2022-12-20T14:14:14.012Z,1.46
2022-12-20T14:16:46.017Z,1.36
2022-12-20T14:19:18.278Z,1.29
2022-12-20T14:21:51.023Z,1.31
2022-12-20T14:24:23.183Z,0.98
2022-12-20T14:26:56.104Z,1.30
2022-12-20T14:29:32.282Z,0.80
2022-12-20T14:32:05.756Z,1.13
2022-12-20T14:34:42.023Z,0.81
2022-12-20T14:37:38.721Z,1.22
2022-12-20T14:40:10.677Z,1.24
2022-12-20T14:42:42.704Z,1.22
2022-12-20T14:45:14.645Z,1.24
2022-12-20T14:47:55.781Z,1.19
2022-12-20T14:50:35.532Z,1.11
2022-12-20T14:53:30.395Z,1.12
2022-12-20T14:56:02.764Z,1.19
2022-12-20T14:58:35.048Z,1.07
2022-12-20T15:01:16.312Z,1.25
2022-12-20T15:03:59.970Z,1.07
2022-12-20T15:06:42.874Z,1.12
2022-12-20T15:09:17.604Z,1.11
2022-12-20T15:11:51.909Z,0.94
2022-12-20T15:14:39.676Z,1.17
2022-12-20T15:17:14.771Z,1.01
2022-12-20T15:19:46.840Z,1.18
2022-12-20T15:22:20.636Z,1.08
2022-12-20T15:24:52.647Z,1.03
2022-12-20T15:27:24.881Z,1.12
2022-12-20T15:29:56.850Z,0.88
2022-12-20T15:32:30.137Z,0.56
2022-12-20T15:35:03.833Z,0.96
2022-12-20T15:37:35.833Z,1.17
2022-12-20T15:40:11.109Z,1.02
2022-12-20T15:42:44.172Z,1.11
2022-12-20T15:45:16.635Z,1.16
2022-12-20T15:47:49.363Z,1.17
2022-12-20T15:50:21.284Z,1.16
2022-12-20T15:52:53.356Z,0.85
2022-12-20T15:55:25.459Z,1.19
2022-12-20T15:57:57.376Z,1.12
2022-12-20T16:00:29.288Z,1.23
2022-12-20T16:03:02.716Z,0.65
2022-12-20T16:05:36.100Z,1.06
2022-12-20T16:08:08.609Z,1.23
2022-12-20T16:10:40.711Z,1.20
2022-12-20T16:13:21.092Z,1.20
2022-12-20T16:15:54.180Z,1.23
2022-12-20T16:18:31.458Z,1.01
2022-12-20T16:21:15.401Z,1.12
2022-12-20T16:23:48.029Z,0.58
2022-12-20T16:26:23.213Z,1.11
2022-12-20T16:28:56.805Z,0.64
2022-12-20T16:31:36.342Z,1.19
2022-12-20T16:34:14.350Z,1.07
2022-12-20T16:36:47.077Z,0.52
2022-12-20T16:39:19.894Z,0.65
2022-12-20T16:41:51.834Z,1.05
2022-12-20T16:44:31.313Z,0.94
2022-12-20T16:47:03.432Z,0.95
2022-12-20T16:49:35.574Z,0.64
2022-12-20T16:52:18.779Z,1.16
2022-12-20T16:54:52.035Z,1.07
2022-12-20T16:57:24.403Z,0.81
2022-12-20T17:00:08.876Z,1.14
2022-12-20T17:02:41.009Z,0.67
2022-12-20T17:05:33.757Z,1.18
2022-12-20T17:10:52.586Z,1.10
2022-12-20T17:13:24.582Z,1.10
2022-12-20T17:15:56.944Z,1.20
2022-12-20T17:18:29.352Z,1.13
2022-12-20T17:21:02.348Z,1.12
2022-12-20T17:23:38.293Z,1.14
2022-12-20T17:26:15.142Z,1.06
2022-12-20T17:28:48.145Z,1.20
2022-12-20T17:31:27.180Z,1.17
2022-12-20T17:33:59.411Z,1.14
2022-12-20T17:36:37.579Z,1.17
2022-12-20T17:39:10.030Z,1.16
2022-12-20T17:41:43.039Z,1.28
2022-12-20T17:44:23.926Z,1.30
2022-12-20T17:46:57.040Z,1.28
2022-12-20T17:49:29.093Z,1.28
2022-12-20T17:52:00.985Z,1.03
2022-12-20T17:54:39.575Z,1.10
2022-12-20T17:57:16.473Z,1.29
2022-12-20T17:59:48.345Z,1.22
2022-12-20T18:02:23.269Z,1.01
2022-12-20T18:04:55.418Z,1.22
2022-12-20T18:07:27.357Z,1.16
2022-12-20T18:09:59.582Z,1.26
2022-12-20T18:12:37.051Z,1.26
2022-12-20T18:15:10.634Z,1.25
2022-12-20T18:17:45.289Z,1.22
2022-12-20T18:20:17.768Z,1.00
2022-12-20T18:22:49.868Z,1.20
2022-12-20T18:25:21.870Z,1.29
2022-12-20T18:27:53.848Z,1.19
2022-12-20T18:30:25.749Z,1.27
2022-12-20T18:32:57.728Z,1.30
2022-12-20T18:35:32.716Z,1.24
2022-12-20T18:38:05.415Z,1.16
2022-12-20T18:40:37.269Z,1.33
2022-12-20T18:43:09.221Z,1.24
2022-12-20T18:45:43.988Z,1.30
2022-12-20T18:48:16.010Z,0.95
2022-12-20T18:50:47.961Z,1.05
2022-12-20T18:53:19.918Z,1.30
2022-12-20T18:55:51.905Z,1.04
2022-12-20T18:58:26.679Z,0.91
2022-12-20T19:01:27.176Z,0.99
2022-12-20T19:07:08.551Z,1.38
2022-12-20T19:09:40.519Z,1.21
2022-12-20T19:12:12.455Z,1.42
2022-12-20T19:14:44.422Z,0.96
2022-12-20T19:17:16.635Z,1.29
2022-12-20T19:19:48.673Z,1.43
2022-12-20T19:22:20.698Z,1.43
2022-12-20T19:24:55.744Z,1.43
2022-12-20T19:27:31.111Z,1.17
2022-12-20T19:30:04.204Z,1.27
2022-12-20T19:32:36.155Z,1.34
2022-12-20T19:35:45.246Z,0.93
2022-12-20T19:38:01.357Z,0.96
2022-12-20T19:40:33.341Z,0.98
2022-12-20T19:43:08.466Z,1.29
2022-12-20T19:46:01.393Z,1.37
2022-12-20T19:48:37.560Z,1.36
2022-12-20T19:51:22.148Z,0.61
2022-12-20T19:54:02.629Z,1.52
2022-12-20T19:56:36.433Z,0.82
2022-12-20T19:59:12.162Z,1.29
2022-12-20T20:01:44.967Z,1.02
2022-12-20T20:04:17.373Z,1.48
2022-12-20T20:06:49.343Z,1.14
2022-12-20T20:09:21.394Z,1.48
2022-12-20T20:11:53.437Z,1.06
2022-12-20T20:14:27.676Z,1.36
2022-12-20T20:16:59.532Z,1.29
2022-12-20T20:19:32.526Z,1.47
2022-12-20T20:22:06.483Z,1.53
2022-12-20T20:24:38.569Z,1.44
2022-12-20T20:27:10.895Z,1.35
2022-12-20T20:29:42.887Z,1.46
2022-12-20T20:32:14.845Z,1.39
2022-12-20T20:34:46.769Z,1.48
2022-12-20T20:37:18.868Z,1.33
2022-12-20T20:39:50.816Z,1.49
2022-12-20T20:42:23.534Z,1.39
2022-12-20T20:44:55.719Z,1.35
2022-12-20T20:47:27.678Z,1.48
2022-12-20T20:49:59.847Z,1.43
2022-12-20T20:52:32.025Z,1.22
2022-12-20T20:55:05.187Z,1.37
2022-12-20T20:57:37.360Z,1.38
2022-12-20T21:00:10.105Z,1.22
2022-12-20T21:02:42.711Z,1.18
2022-12-20T21:08:07.217Z,0.87
2022-12-20T21:10:39.399Z,1.22
2022-12-20T21:13:12.440Z,1.39
2022-12-20T21:15:46.058Z,1.43
2022-12-20T21:18:18.539Z,1.45
2022-12-20T21:20:50.746Z,1.43
2022-12-20T21:23:22.850Z,1.36
2022-12-20T21:25:58.864Z,1.53
2022-12-20T21:28:31.905Z,1.37
2022-12-20T21:31:06.853Z,1.47
2022-12-20T21:33:39.367Z,1.47
2022-12-20T21:36:14.335Z,1.51
2022-12-20T21:38:51.124Z,1.44
2022-12-20T21:41:25.437Z,1.47
2022-12-20T21:44:01.011Z,1.49
2022-12-20T21:46:33.373Z,1.21
2022-12-20T21:49:05.407Z,1.21
2022-12-20T21:51:37.385Z,1.47
2022-12-20T21:54:09.855Z,1.29
2022-12-20T21:56:41.774Z,1.54
2022-12-20T21:59:13.955Z,1.43
2022-12-20T22:01:47.398Z,1.21
2022-12-20T22:04:19.704Z,0.96
2022-12-20T22:06:51.753Z,1.46
2022-12-20T22:09:23.802Z,1.42
2022-12-20T22:11:55.810Z,1.13
2022-12-20T22:14:27.755Z,1.40
2022-12-20T22:16:59.695Z,1.47
2022-12-20T22:19:31.832Z,1.56
2022-12-20T22:22:03.804Z,1.53
2022-12-20T22:24:37.549Z,1.62
2022-12-20T22:27:11.705Z,1.53
2022-12-20T22:29:43.708Z,1.27
2022-12-20T22:32:15.728Z,1.36
2022-12-20T22:34:47.850Z,1.44
2022-12-20T22:37:19.831Z,1.26
2022-12-20T22:39:51.824Z,1.39
2022-12-20T22:42:23.829Z,1.41
2022-12-20T22:44:55.764Z,1.48
2022-12-20T22:50:13.767Z,1.44
2022-12-20T22:52:45.738Z,1.49
2022-12-20T22:55:17.769Z,1.41
2022-12-20T22:57:49.713Z,1.46
2022-12-20T23:00:22.059Z,1.52
2022-12-20T23:02:54.167Z,1.52
2022-12-20T23:05:26.282Z,1.59
2022-12-20T23:07:58.402Z,1.56
2022-12-20T23:10:48.898Z,1.28
2022-12-20T23:13:39.597Z,1.38
2022-12-20T23:16:12.932Z,1.35
2022-12-20T23:18:45.056Z,1.62
2022-12-20T23:21:35.467Z,1.25
2022-12-20T23:24:08.201Z,1.51
2022-12-20T23:26:40.928Z,1.45
2022-12-20T23:29:14.832Z,1.47
2022-12-20T23:31:46.996Z,1.46
2022-12-20T23:34:18.923Z,1.18
2022-12-20T23:36:50.866Z,1.34
2022-12-20T23:39:22.781Z,1.33
2022-12-20T23:41:54.702Z,1.29
2022-12-20T23:44:26.632Z,1.47
2022-12-20T23:46:58.568Z,1.53
2022-12-20T23:49:30.488Z,1.23
2022-12-20T23:52:02.471Z,1.51
2022-12-20T23:54:34.347Z,1.16
2022-12-20T23:57:06.298Z,1.49
2022-12-20T23:59:38.980Z,1.47
